Airport View

Enter AWOS ICAO identifier for current METAR.

ex. KFNL

KRPD 030040Z AUTO 25003KT 7SM CLR 18/17 A2985 RMK AO2 T01800167

3 Jun 2020 00:41

Frequency: 120.525

Phone: 715-458-4481

Other Area AWOS: KY23 - KUBE - KLUM - KRCX

TAF KEAU 022334Z 0300/0324 02008KT 6SM -TSRA BKN090CB OVC150 FM030130 02004KT P6SM BKN080 OVC150 FM030500 30006KT P6SM SKC